createdAt,value
2018-03-23T00:01:30.574Z,5.30
2018-03-23T00:03:58.747Z,5.30
2018-03-23T00:06:34.977Z,5.30
2018-03-23T00:09:03.151Z,5.00
2018-03-23T00:14:32.905Z,5.30
2018-03-23T00:17:01.089Z,5.30
2018-03-23T00:19:29.298Z,5.30
2018-03-23T00:21:57.477Z,5.20
2018-03-23T00:24:25.729Z,5.20
2018-03-23T00:26:53.960Z,5.20
2018-03-23T00:29:22.953Z,4.80
2018-03-23T00:31:51.917Z,5.10
2018-03-23T00:34:20.092Z,5.10
2018-03-23T00:36:48.307Z,5.20
2018-03-23T00:39:36.552Z,5.30
2018-03-23T00:42:04.782Z,5.30
2018-03-23T00:44:33.002Z,5.10
2018-03-23T00:47:01.176Z,5.20
2018-03-23T00:49:29.379Z,5.00
2018-03-23T00:51:57.561Z,4.80
2018-03-23T00:54:25.815Z,4.70
2018-03-23T00:56:54.005Z,4.90
2018-03-23T00:59:22.197Z,4.90
2018-03-23T01:01:50.435Z,4.90
2018-03-23T01:04:18.613Z,4.80
2018-03-23T01:06:46.811Z,4.80
2018-03-23T01:09:15.021Z,4.80
2018-03-23T01:11:43.964Z,5.10
2018-03-23T01:14:12.181Z,5.10
2018-03-23T01:16:41.154Z,5.00
2018-03-23T01:19:09.337Z,4.90
2018-03-23T01:21:37.552Z,5.10
2018-03-23T01:24:05.731Z,4.90
2018-03-23T01:26:35.780Z,4.90
2018-03-23T01:29:04.056Z,5.10
2018-03-23T01:31:32.300Z,5.20
2018-03-23T01:34:00.544Z,4.80
2018-03-23T01:36:35.890Z,5.10
2018-03-23T01:39:04.019Z,5.10
2018-03-23T01:41:32.232Z,5.20
2018-03-23T01:47:02.646Z,4.60
2018-03-23T01:52:31.821Z,4.40
2018-03-23T01:54:59.996Z,4.10
2018-03-23T01:57:28.177Z,4.30
2018-03-23T01:59:56.438Z,4.00
2018-03-23T02:02:24.616Z,3.90
2018-03-23T02:04:52.797Z,4.00
2018-03-23T02:07:21.015Z,3.90
2018-03-23T02:09:49.197Z,3.90
2018-03-23T02:12:35.270Z,3.70
2018-03-23T02:15:03.467Z,3.70
2018-03-23T02:20:40.706Z,3.70
2018-03-23T02:23:35.088Z,3.80
2018-03-23T02:26:03.341Z,4.20
2018-03-23T02:28:32.295Z,4.40
2018-03-23T02:31:00.481Z,4.40
2018-03-23T02:33:35.441Z,4.40
2018-03-23T02:36:03.628Z,4.60
2018-03-23T02:38:31.795Z,4.20
2018-03-23T02:41:00.098Z,4.10
2018-03-23T02:43:28.264Z,4.40
2018-03-23T02:45:56.466Z,4.70
2018-03-23T02:48:24.656Z,4.70
2018-03-23T02:56:54.139Z,4.80
2018-03-23T02:59:22.336Z,4.80
2018-03-23T03:01:50.508Z,4.80
2018-03-23T03:04:18.735Z,4.60
2018-03-23T03:06:47.689Z,4.40
2018-03-23T03:09:35.219Z,4.40
2018-03-23T03:12:03.401Z,4.60
2018-03-23T03:14:31.572Z,4.90
2018-03-23T03:16:59.803Z,4.90
2018-03-23T03:19:27.994Z,4.60
2018-03-23T03:24:57.879Z,4.00
2018-03-23T03:27:35.390Z,3.80
2018-03-23T03:30:03.698Z,3.80
2018-03-23T03:32:34.976Z,4.00
2018-03-23T03:35:03.171Z,4.10
2018-03-23T03:37:32.452Z,3.80
2018-03-23T03:40:00.641Z,3.80
2018-03-23T03:42:29.590Z,4.20
2018-03-23T03:44:57.858Z,4.20
2018-03-23T03:47:26.044Z,4.30
2018-03-23T03:49:54.219Z,4.40
2018-03-23T03:52:22.444Z,4.50
2018-03-23T03:59:19.591Z,4.00
2018-03-23T04:01:47.782Z,4.00
2018-03-23T04:04:16.741Z,3.90
2018-03-23T04:06:44.972Z,3.90
2018-03-23T04:09:34.067Z,3.90
2018-03-23T04:12:02.295Z,4.30
2018-03-23T04:14:31.250Z,4.20
2018-03-23T04:16:59.421Z,4.20
2018-03-23T04:19:34.744Z,3.90
2018-03-23T04:22:03.752Z,3.80
2018-03-23T04:24:31.931Z,3.90
2018-03-23T04:30:04.150Z,4.10
2018-03-23T04:32:32.350Z,4.10
2018-03-23T04:35:00.534Z,4.20
2018-03-23T04:40:29.617Z,4.00
2018-03-23T04:42:57.796Z,4.00
2018-03-23T04:45:25.963Z,3.80
2018-03-23T04:47:54.204Z,4.00
2018-03-23T04:50:22.394Z,3.90
2018-03-23T04:52:51.363Z,3.90
2018-03-23T04:55:19.580Z,3.90
2018-03-23T04:57:47.779Z,4.00
2018-03-23T05:00:35.484Z,3.90
2018-03-23T05:03:03.674Z,3.80
2018-03-23T05:05:35.084Z,4.00
2018-03-23T05:08:04.079Z,4.00
2018-03-23T05:10:33.038Z,4.10
2018-03-23T05:13:01.223Z,4.10
2018-03-23T05:15:29.449Z,4.00
2018-03-23T05:17:57.635Z,4.30
2018-03-23T05:20:25.815Z,4.40
2018-03-23T05:22:54.074Z,4.20
2018-03-23T05:25:22.341Z,3.90
2018-03-23T05:27:50.539Z,3.90
2018-03-23T05:30:18.742Z,3.50
2018-03-23T05:32:47.390Z,3.40
2018-03-23T05:35:15.589Z,3.30
2018-03-23T05:37:43.825Z,3.30
2018-03-23T05:40:12.002Z,3.00
2018-03-23T05:42:40.175Z,3.00
2018-03-23T05:45:08.401Z,2.90
2018-03-23T05:47:36.579Z,3.10
2018-03-23T05:53:06.413Z,3.00
2018-03-23T05:55:35.356Z,3.00
2018-03-23T05:58:03.550Z,3.00
2018-03-23T06:00:31.781Z,3.00
2018-03-23T06:02:59.963Z,3.20
2018-03-23T06:05:28.148Z,3.00
2018-03-23T06:07:56.379Z,3.20
2018-03-23T06:13:25.737Z,2.90
2018-03-23T06:15:53.934Z,2.90
2018-03-23T06:21:23.709Z,2.90
2018-03-23T06:23:52.781Z,2.90
2018-03-23T06:26:20.984Z,2.90
2018-03-23T06:28:49.212Z,3.00
2018-03-23T06:31:17.494Z,3.00
2018-03-23T06:33:45.676Z,3.00
2018-03-23T06:36:15.450Z,3.10
2018-03-23T06:38:43.638Z,3.00
2018-03-23T06:41:11.829Z,2.80
2018-03-23T06:43:40.038Z,2.80
2018-03-23T06:49:10.145Z,2.70
2018-03-23T06:54:38.998Z,2.70
2018-03-23T06:57:07.179Z,2.70
2018-03-23T06:59:35.351Z,2.80
2018-03-23T07:02:33.793Z,2.80
2018-03-23T07:14:35.402Z,2.80
2018-03-23T07:17:03.590Z,2.80
2018-03-23T07:22:33.621Z,2.90
2018-03-23T07:31:03.517Z,2.80
2018-03-23T07:33:35.007Z,2.70
2018-03-23T07:36:03.232Z,2.80
2018-03-23T07:38:31.418Z,2.70
2018-03-23T07:40:59.615Z,2.80
2018-03-23T07:43:27.838Z,2.90
2018-03-23T07:48:56.825Z,2.80
2018-03-23T07:51:25.008Z,2.80
2018-03-23T07:59:54.933Z,2.80
2018-03-23T08:02:23.122Z,2.80
2018-03-23T08:04:51.309Z,2.80
2018-03-23T08:07:20.304Z,2.80
2018-03-23T08:14:18.194Z,2.90
2018-03-23T08:16:47.147Z,2.70
2018-03-23T08:19:15.326Z,2.70
2018-03-23T08:24:45.180Z,2.80
2018-03-23T08:27:13.365Z,2.90
2018-03-23T08:29:42.303Z,2.70
2018-03-23T08:32:10.544Z,2.70
2018-03-23T08:34:38.734Z,2.80
2018-03-23T08:37:06.926Z,2.70
2018-03-23T08:39:35.156Z,2.70
2018-03-23T08:42:04.087Z,2.70
2018-03-23T08:44:32.312Z,2.70
2018-03-23T08:47:00.526Z,2.70
2018-03-23T08:49:28.731Z,2.60
2018-03-23T08:51:56.903Z,2.70
2018-03-23T08:54:25.116Z,2.70
2018-03-23T08:59:55.747Z,2.70
2018-03-23T09:02:23.947Z,2.50
2018-03-23T09:04:52.133Z,2.60
2018-03-23T09:07:20.358Z,2.70
2018-03-23T09:09:48.546Z,2.60
2018-03-23T09:12:16.742Z,2.60
2018-03-23T09:14:44.948Z,2.70
2018-03-23T09:17:52.443Z,2.70
2018-03-23T09:20:20.652Z,2.60
2018-03-23T09:22:48.844Z,2.60
2018-03-23T09:25:17.806Z,2.80
2018-03-23T09:27:46.023Z,2.80
2018-03-23T09:30:14.978Z,2.90
2018-03-23T09:35:36.019Z,2.90
2018-03-23T09:41:20.711Z,3.00
2018-03-23T09:43:49.666Z,3.10
2018-03-23T09:46:17.863Z,3.00
2018-03-23T09:48:46.101Z,3.20
2018-03-23T09:51:14.276Z,3.10
2018-03-23T09:53:42.466Z,3.20
2018-03-23T09:56:12.194Z,3.60
2018-03-23T09:58:41.154Z,3.40
2018-03-23T10:01:09.346Z,3.40
2018-03-23T10:03:37.569Z,3.40
2018-03-23T10:06:05.763Z,3.50
2018-03-23T10:08:35.867Z,3.80
2018-03-23T10:11:04.106Z,3.90
2018-03-23T10:13:33.045Z,3.90
2018-03-23T10:19:02.117Z,4.10
2018-03-23T10:24:31.187Z,4.00
2018-03-23T10:26:59.377Z,4.00
2018-03-23T10:29:27.565Z,4.20
2018-03-23T10:31:55.791Z,4.20
2018-03-23T10:34:36.679Z,4.50
2018-03-23T10:37:04.938Z,4.60
2018-03-23T10:39:33.245Z,4.30
2018-03-23T10:42:01.579Z,4.20
2018-03-23T10:44:36.049Z,4.30
2018-03-23T10:47:04.268Z,4.40
2018-03-23T10:49:32.436Z,4.30
2018-03-23T10:52:00.643Z,4.50
2018-03-23T10:54:28.843Z,4.70
2018-03-23T10:56:57.038Z,4.70
2018-03-23T10:59:26.060Z,4.80
2018-03-23T11:08:46.778Z,4.70
2018-03-23T11:11:15.723Z,5.20
2018-03-23T11:13:43.910Z,5.10
2018-03-23T11:16:12.131Z,5.10
2018-03-23T11:18:40.313Z,5.10
2018-03-23T11:21:08.501Z,5.10
2018-03-23T11:26:26.486Z,5.30
2018-03-23T11:28:54.664Z,5.40
2018-03-23T11:31:22.851Z,5.30
2018-03-23T11:33:51.847Z,4.90
2018-03-23T11:36:20.811Z,5.00
2018-03-23T11:38:48.999Z,5.00
2018-03-23T11:41:17.299Z,5.10
2018-03-23T11:43:46.269Z,5.00
2018-03-23T11:46:14.454Z,5.00
2018-03-23T11:48:43.454Z,5.00
2018-03-23T11:51:12.394Z,5.00
2018-03-23T11:56:40.971Z,5.10
2018-03-23T11:59:09.156Z,5.30
2018-03-23T12:01:37.339Z,5.10
2018-03-23T12:04:05.565Z,5.00
2018-03-23T12:06:34.502Z,5.20
2018-03-23T12:15:03.422Z,5.10
2018-03-23T12:17:31.610Z,5.10
2018-03-23T12:23:00.382Z,5.00
2018-03-23T12:28:12.175Z,5.00
2018-03-23T12:30:41.133Z,5.10
2018-03-23T12:33:36.119Z,5.20
2018-03-23T12:39:05.171Z,4.90
2018-03-23T12:41:35.152Z,4.90
2018-03-23T12:44:03.337Z,5.00
2018-03-23T12:46:31.561Z,4.90
2018-03-23T12:48:59.756Z,5.00
2018-03-23T12:51:27.999Z,4.90
2018-03-23T12:56:57.758Z,5.00
2018-03-23T12:59:25.938Z,5.00
2018-03-23T13:01:54.135Z,5.00
2018-03-23T13:07:22.902Z,5.00
2018-03-23T13:09:51.098Z,5.00
2018-03-23T13:12:19.286Z,5.10
2018-03-23T13:17:47.966Z,4.80
2018-03-23T13:20:16.163Z,5.00
2018-03-23T13:22:44.352Z,4.80
2018-03-23T13:25:13.333Z,4.90
2018-03-23T13:27:41.508Z,4.90
2018-03-23T13:30:09.682Z,4.80
2018-03-23T13:32:37.913Z,4.60
2018-03-23T13:35:07.016Z,4.60
2018-03-23T13:37:35.261Z,4.60
2018-03-23T13:40:03.444Z,4.70
2018-03-23T13:45:36.437Z,4.40
2018-03-23T13:48:05.385Z,4.40
2018-03-23T13:50:33.565Z,4.40
2018-03-23T13:53:01.784Z,4.30
2018-03-23T13:55:29.959Z,4.40
2018-03-23T14:01:02.107Z,4.20
2018-03-23T14:06:30.655Z,4.40
2018-03-23T14:08:58.832Z,4.30
2018-03-23T14:11:27.017Z,4.30
2018-03-23T14:13:55.238Z,4.10
2018-03-23T14:16:23.423Z,4.10
2018-03-23T14:18:52.361Z,4.10
2018-03-23T14:21:20.576Z,4.10
2018-03-23T14:23:48.748Z,4.00
2018-03-23T14:26:35.112Z,4.30
2018-03-23T14:29:03.329Z,4.30
2018-03-23T14:34:33.873Z,4.20
2018-03-23T14:37:02.853Z,4.10
2018-03-23T14:39:37.154Z,4.10
2018-03-23T14:42:05.344Z,4.00
2018-03-23T14:44:36.787Z,4.00
2018-03-23T14:50:06.662Z,4.20
2018-03-23T14:52:34.840Z,4.20
2018-03-23T14:55:03.035Z,4.30
2018-03-23T14:57:37.765Z,4.00
2018-03-23T15:00:05.997Z,4.00
2018-03-23T15:02:34.941Z,3.80
2018-03-23T15:14:16.531Z,3.90
2018-03-23T15:16:45.474Z,4.10
2018-03-23T15:22:34.930Z,4.40
2018-03-23T15:31:04.937Z,4.80
2018-03-23T15:33:33.135Z,4.80
2018-03-23T15:36:02.072Z,5.50
2018-03-23T15:38:36.405Z,5.50
2018-03-23T15:44:05.358Z,5.30
2018-03-23T15:46:35.769Z,5.10
2018-03-23T15:52:04.710Z,4.80
2018-03-23T15:55:53.267Z,5.20
2018-03-23T15:58:21.476Z,5.30
2018-03-23T16:00:49.656Z,5.50
2018-03-23T16:06:35.786Z,5.60
2018-03-23T16:09:03.987Z,5.50
2018-03-23T16:17:36.802Z,5.50
2018-03-23T16:23:06.590Z,5.60
2018-03-23T16:28:36.155Z,5.60
2018-03-23T16:31:05.109Z,5.60
2018-03-23T16:33:33.287Z,5.60
2018-03-23T16:39:22.991Z,5.90
2018-03-23T16:47:54.304Z,6.40
2018-03-23T16:53:37.296Z,6.50
2018-03-23T17:10:55.877Z,4.70
2018-03-23T17:25:06.696Z,4.40
2018-03-23T17:27:41.167Z,4.40
2018-03-23T17:30:36.155Z,4.20
2018-03-23T17:49:40.246Z,4.10
2018-03-23T17:52:08.439Z,3.80
2018-03-23T17:54:37.408Z,3.90
2018-03-23T17:57:06.407Z,3.90
2018-03-23T17:59:35.726Z,3.90
2018-03-23T18:02:04.682Z,3.70
2018-03-23T18:04:32.910Z,3.60
2018-03-23T18:07:01.861Z,3.70
2018-03-23T18:15:32.071Z,3.50
2018-03-23T18:18:00.240Z,3.50
2018-03-23T18:20:28.411Z,3.50
2018-03-23T18:25:57.926Z,3.50
2018-03-23T18:28:29.934Z,3.50
2018-03-23T18:30:58.143Z,3.50
2018-03-23T18:33:36.520Z,3.50
2018-03-23T18:39:06.319Z,3.40
2018-03-23T18:41:34.537Z,3.20
2018-03-23T18:44:02.713Z,3.30
2018-03-23T18:46:30.950Z,3.30
2018-03-23T18:48:59.140Z,3.30
2018-03-23T18:54:27.627Z,3.60
2018-03-23T19:02:59.184Z,3.60
2018-03-23T19:08:35.806Z,3.30
2018-03-23T19:14:05.407Z,3.10
2018-03-23T19:16:34.372Z,3.10
2018-03-23T19:19:02.548Z,2.90
2018-03-23T19:21:37.061Z,3.00
2018-03-23T19:24:05.233Z,3.00
2018-03-23T19:26:36.838Z,3.10
2018-03-23T19:29:05.012Z,3.00
2018-03-23T19:31:33.184Z,2.80
2018-03-23T19:34:01.452Z,2.90
2018-03-23T19:39:29.738Z,3.00
2018-03-23T19:41:58.686Z,2.90
2018-03-23T19:44:26.867Z,3.00
2018-03-23T19:46:55.084Z,3.00
2018-03-23T19:49:36.135Z,2.90
2018-03-23T19:52:34.500Z,2.80
2018-03-23T19:55:02.680Z,2.70
2018-03-23T19:57:30.884Z,2.60
2018-03-23T20:03:00.704Z,2.90
2018-03-23T20:08:02.518Z,2.70
2018-03-23T20:10:30.692Z,2.60
2018-03-23T20:19:00.922Z,2.70
2018-03-23T20:21:35.556Z,2.60
2018-03-23T20:27:35.300Z,2.70
2018-03-23T20:38:50.680Z,2.70
2018-03-23T20:41:35.994Z,2.80
2018-03-23T20:52:56.060Z,2.30
2018-03-23T21:07:37.046Z,2.90
2018-03-23T21:13:34.785Z,2.90
2018-03-23T21:19:02.864Z,2.70
2018-03-23T21:30:37.122Z,3.70
2018-03-23T21:36:34.646Z,4.10
2018-03-23T21:39:02.832Z,4.10
2018-03-23T21:44:37.585Z,4.10
2018-03-23T21:47:05.774Z,4.00
2018-03-23T21:55:36.031Z,4.30
2018-03-23T21:58:04.980Z,4.20
2018-03-23T22:00:36.528Z,4.10
2018-03-23T22:06:35.665Z,4.10
2018-03-23T22:09:03.949Z,4.20
2018-03-23T22:11:32.140Z,4.30
2018-03-23T22:14:00.521Z,4.30
2018-03-23T22:16:30.191Z,4.30
2018-03-23T22:18:58.381Z,4.30
2018-03-23T22:21:26.600Z,4.30
2018-03-23T22:23:55.554Z,4.10
2018-03-23T22:29:25.872Z,3.60
2018-03-23T22:37:38.736Z,3.90
2018-03-23T22:40:34.232Z,3.90
2018-03-23T22:43:02.417Z,3.40
2018-03-23T22:45:30.703Z,3.30
2018-03-23T22:50:59.075Z,4.20
2018-03-23T22:53:27.267Z,3.70
2018-03-23T22:55:55.444Z,3.60
2018-03-23T22:58:23.660Z,4.00
2018-03-23T23:00:52.610Z,4.30
2018-03-23T23:03:20.814Z,4.30
2018-03-23T23:05:49.808Z,3.90
2018-03-23T23:11:20.136Z,3.70
2018-03-23T23:13:48.312Z,3.70
2018-03-23T23:16:35.949Z,3.50
2018-03-23T23:19:04.937Z,3.90
2018-03-23T23:24:33.459Z,4.10
2018-03-23T23:27:02.420Z,4.30
2018-03-23T23:29:30.600Z,4.30
2018-03-23T23:31:58.818Z,4.10
2018-03-23T23:34:27.029Z,4.30
2018-03-23T23:36:55.212Z,4.40
2018-03-23T23:39:23.448Z,3.80
2018-03-23T23:41:51.733Z,3.70
2018-03-23T23:44:19.915Z,3.60
2018-03-23T23:46:48.130Z,3.70
2018-03-23T23:52:17.447Z,3.70
2018-03-23T23:54:46.393Z,3.80
2018-03-23T23:57:14.576Z,3.80
2018-03-23T23:59:42.804Z,3.80
